Time;durP1;ratioP1;P1;durP2;ratioP2;P2;SDS_P1;SDS_P2;PMS_P1;PMS_P2;Temp;Humidity;BMP_temperature;BMP_pressure;BME280_temperature;BME280_humidity;BME280_pressure;Samples;Min_cycle;Max_cycle;Signal;HPM_P1;HPM_P2
2024/01/16 00:00:22;;;;;;;8.63;3.55;;;;;;;-1.36;100.00;100866.47;5050210;28;20120;-68
2024/01/16 00:02:48;;;;;;;14.02;4.50;;;;;;;-1.31;100.00;100859.09;5050349;28;20029;-68
2024/01/16 00:05:13;;;;;;;10.27;3.10;;;;;;;-1.21;100.00;100861.81;5049038;28;20036;-68
2024/01/16 00:07:39;;;;;;;6.60;3.55;;;;;;;-1.21;100.00;100854.78;5049954;28;20476;-68
2024/01/16 00:10:07;;;;;;;8.55;3.65;;;;;;;-1.14;100.00;100866.44;5050094;28;20111;-68
2024/01/16 00:12:33;;;;;;;12.30;3.25;;;;;;;-1.09;100.00;100863.47;5049962;28;20033;-74
2024/01/16 00:14:58;;;;;;;7.32;3.13;;;;;;;-1.05;100.00;100862.25;5050123;28;20044;-74
2024/01/16 00:17:23;;;;;;;9.82;3.55;;;;;;;-1.06;100.00;100860.59;5049938;28;20033;-73
2024/01/16 00:19:49;;;;;;;6.80;3.00;;;;;;;-1.06;100.00;100862.41;5050084;28;20074;-73
2024/01/16 00:22:15;;;;;;;5.07;2.72;;;;;;;-1.06;100.00;100851.94;5049933;28;20100;-73
2024/01/16 00:24:40;;;;;;;7.20;3.65;;;;;;;-1.06;100.00;100849.31;5049884;28;20158;-73
2024/01/16 00:27:05;;;;;;;6.13;2.70;;;;;;;-1.05;100.00;100854.41;5049716;28;20438;-74
2024/01/16 00:29:31;;;;;;;7.13;2.80;;;;;;;-1.09;100.00;100860.84;5049773;28;20032;-73
2024/01/16 00:31:56;;;;;;;10.95;3.25;;;;;;;-1.08;100.00;100861.69;5049685;28;20025;-73
2024/01/16 00:34:22;;;;;;;6.00;2.67;;;;;;;-1.11;100.00;100862.75;5049781;28;20166;-74
2024/01/16 00:36:47;;;;;;;4.40;2.50;;;;;;;-1.04;100.00;100871.78;5049727;28;20114;-73
2024/01/16 00:39:13;;;;;;;8.73;3.70;;;;;;;-1.06;100.00;100873.69;5049777;28;20033;-73
2024/01/16 00:41:39;;;;;;;6.40;2.83;;;;;;;-1.08;100.00;100865.13;5049406;28;20029;-73
2024/01/16 00:44:05;;;;;;;14.45;4.45;;;;;;;-1.11;100.00;100860.97;5049628;28;20035;-73
2024/01/16 00:46:30;;;;;;;8.50;3.05;;;;;;;-1.07;100.00;100865.94;5049657;28;20024;-73
2024/01/16 00:48:55;;;;;;;4.43;2.42;;;;;;;-1.09;100.00;100860.03;5049668;28;20445;-73
2024/01/16 00:51:21;;;;;;;6.03;2.95;;;;;;;-1.11;100.00;100862.75;5049497;28;20051;-73
2024/01/16 00:53:46;;;;;;;8.68;3.15;;;;;;;-1.13;100.00;100862.88;5049724;28;20056;-73
2024/01/16 00:56:12;;;;;;;3.45;1.95;;;;;;;-1.11;100.00;100870.59;5049316;28;20025;-73
2024/01/16 00:58:38;;;;;;;8.45;3.28;;;;;;;-1.08;100.00;100869.53;5049622;28;20065;-73
2024/01/16 01:01:04;;;;;;;6.55;3.05;;;;;;;-1.04;100.00;100882.25;5049350;28;20025;-74
2024/01/16 01:03:29;;;;;;;18.08;3.72;;;;;;;-1.03;100.00;100881.28;5049450;28;20043;-73
2024/01/16 01:05:55;;;;;;;7.45;3.35;;;;;;;-1.01;100.00;100870.72;5049420;28;20110;-73
2024/01/16 01:08:21;;;;;;;9.82;3.50;;;;;;;-0.93;100.00;100891.88;5049111;28;20056;-74
2024/01/16 01:10:47;;;;;;;6.60;3.00;;;;;;;-0.93;100.00;100892.72;5049345;28;20052;-73
2024/01/16 01:13:12;;;;;;;5.30;2.60;;;;;;;-0.87;100.00;100883.53;5049338;28;20037;-73
2024/01/16 01:15:38;;;;;;;4.35;2.28;;;;;;;-0.84;100.00;100888.53;5049266;28;20048;-73
2024/01/16 01:18:03;;;;;;;4.57;2.55;;;;;;;-0.83;100.00;100884.97;5049802;28;20389;-73
2024/01/16 01:20:29;;;;;;;5.20;2.63;;;;;;;-0.80;100.00;100887.34;5053265;28;20040;-74
2024/01/16 01:22:55;;;;;;;10.05;3.45;;;;;;;-0.80;100.00;100881.28;5053341;28;20054;-73
2024/01/16 01:25:20;;;;;;;4.80;1.92;;;;;;;-0.78;100.00;100882.00;5053131;28;20044;-68
2024/01/16 01:27:46;;;;;;;6.85;2.67;;;;;;;-0.76;100.00;100883.53;5053256;28;20460;-68
2024/01/16 01:30:11;;;;;;;7.22;2.67;;;;;;;-0.77;100.00;100879.22;5053203;28;20545;-68
2024/01/16 01:32:38;;;;;;;8.52;2.90;;;;;;;-0.76;100.00;100874.81;5053265;28;20060;-68
2024/01/16 01:35:04;;;;;;;10.82;3.63;;;;;;;-0.80;100.00;100876.88;5053120;28;20107;-68
2024/01/16 01:37:29;;;;;;;6.45;2.80;;;;;;;-0.81;100.00;100884.81;5053085;28;20047;-68
2024/01/16 01:39:55;;;;;;;12.27;3.13;;;;;;;-0.81;100.00;100879.59;5053100;28;20021;-68
2024/01/16 01:42:20;;;;;;;8.10;2.92;;;;;;;-0.81;100.00;100882.22;5052797;28;20025;-68
2024/01/16 01:44:45;;;;;;;9.63;3.58;;;;;;;-0.80;100.00;100878.66;5052965;28;20033;-68
2024/01/16 01:47:11;;;;;;;9.65;2.78;;;;;;;-0.80;100.00;100876.88;5052795;28;20067;-68
2024/01/16 01:49:37;;;;;;;15.00;3.90;;;;;;;-0.80;100.00;100883.88;5052704;28;20087;-68
2024/01/16 01:52:04;;;;;;;9.60;3.88;;;;;;;-0.80;100.00;100889.13;5052741;28;20033;-68
2024/01/16 01:54:32;;;;;;;8.95;3.05;;;;;;;-0.86;100.00;100881.75;5053093;28;20021;-68
2024/01/16 01:56:57;;;;;;;7.00;2.65;;;;;;;-0.82;100.00;100891.03;5052354;28;20400;-68
2024/01/16 01:59:24;;;;;;;10.73;3.05;;;;;;;-0.85;100.00;100886.03;5052758;28;20033;-68
2024/01/16 02:01:54;;;;;;;9.07;3.03;;;;;;;-0.85;100.00;100889.47;5052498;28;20079;-68
2024/01/16 02:04:21;;;;;;;13.13;3.80;;;;;;;-0.91;100.00;100893.44;5052694;28;20092;-68
2024/01/16 02:06:46;;;;;;;9.90;3.20;;;;;;;-0.86;100.00;100903.53;5052396;28;20132;-68
2024/01/16 02:09:13;;;;;;;7.45;3.40;;;;;;;-0.90;100.00;100892.47;5052462;28;20132;-68
2024/01/16 02:11:42;;;;;;;8.05;2.72;;;;;;;-0.84;100.00;100906.03;5052360;28;20017;-68
2024/01/16 02:14:07;;;;;;;8.07;2.47;;;;;;;-0.82;100.00;100901.50;5052409;28;20029;-68
2024/01/16 02:16:39;;;;;;;6.07;2.67;;;;;;;-0.80;100.00;100891.75;5052258;28;20547;-68
2024/01/16 02:19:04;;;;;;;9.57;2.95;;;;;;;-0.78;100.00;100888.06;5052438;28;20025;-68
2024/01/16 02:21:46;;;;;;;9.52;3.83;;;;;;;-0.80;100.00;100884.72;5052177;28;20028;-68
2024/01/16 02:24:13;;;;;;;7.20;3.45;;;;;;;-0.74;100.00;100892.06;5052114;28;20135;-68
2024/01/16 02:26:39;;;;;;;8.60;3.80;;;;;;;-0.72;100.00;100890.16;5052228;28;20040;-68
2024/01/16 02:29:04;;;;;;;6.45;2.35;;;;;;;-0.72;100.00;100886.72;5051784;28;20036;-68
2024/01/16 02:31:33;;;;;;;5.10;1.65;;;;;;;-0.72;100.00;100890.16;5051020;28;20028;-68
2024/01/16 02:33:59;;;;;;;9.23;2.97;;;;;;;-0.70;100.00;100892.69;5052172;28;20075;-68
2024/01/16 02:36:25;;;;;;;7.15;2.40;;;;;;;-0.72;100.00;100891.97;5051747;28;20025;-68
2024/01/16 02:38:51;;;;;;;6.22;2.70;;;;;;;-0.81;100.00;100884.81;5051829;28;20040;-68
2024/01/16 02:41:17;;;;;;;4.03;1.88;;;;;;;-0.81;100.00;100898.78;5050560;28;20036;-68
2024/01/16 02:43:43;;;;;;;3.00;1.90;;;;;;;-0.82;100.00;100897.09;5051808;28;20124;-68
2024/01/16 02:46:08;;;;;;;3.22;1.80;;;;;;;-0.88;100.00;100898.41;5051665;28;20033;-69
2024/01/16 02:48:35;;;;;;;3.75;1.80;;;;;;;-0.85;100.00;100917.47;5051551;28;20028;-68
2024/01/16 02:51:01;;;;;;;4.75;2.05;;;;;;;-0.86;100.00;100913.16;5051561;28;20083;-68
2024/01/16 02:53:28;;;;;;;6.45;1.90;;;;;;;-0.87;100.00;100914.94;5051698;28;20029;-68
2024/01/16 02:55:53;;;;;;;4.50;1.92;;;;;;;-0.88;100.00;100910.69;5050216;28;20402;-68
2024/01/16 02:58:18;;;;;;;7.35;3.83;;;;;;;-0.88;100.00;100908.06;5051682;28;20029;-68
2024/01/16 03:00:43;;;;;;;4.22;1.83;;;;;;;-0.89;100.00;100902.00;5051476;28;20025;-68
2024/01/16 03:03:10;;;;;;;3.80;1.80;;;;;;;-0.84;100.00;100899.00;5051419;28;20032;-68
2024/01/16 03:05:36;;;;;;;7.20;3.25;;;;;;;-0.81;100.00;100914.47;5051440;28;20044;-68
2024/01/16 03:08:01;;;;;;;4.05;1.52;;;;;;;-0.73;100.00;100917.31;5051135;28;20148;-68
2024/01/16 03:10:26;;;;;;;9.27;2.28;;;;;;;-0.68;100.00;100919.59;5051109;28;20036;-68
2024/01/16 03:12:52;;;;;;;6.72;2.30;;;;;;;-0.64;100.00;100912.31;5051263;28;20534;-68
2024/01/16 03:15:18;;;;;;;12.23;4.28;;;;;;;-0.64;100.00;100913.13;5051141;28;20116;-68
2024/01/16 03:17:43;;;;;;;4.50;1.63;;;;;;;-0.60;100.00;100908.47;5051396;28;20104;-68
2024/01/16 03:20:09;;;;;;;9.13;2.17;;;;;;;-0.59;100.00;100903.13;5050993;28;20384;-67
2024/01/16 03:22:34;;;;;;;6.50;2.65;;;;;;;-0.57;100.00;100910.88;5050945;28;20129;-68
2024/01/16 03:25:00;;;;;;;3.92;2.33;;;;;;;-0.58;100.00;100912.63;5050869;28;20480;-68
2024/01/16 03:27:27;;;;;;;11.80;2.92;;;;;;;-0.62;100.00;100918.25;5050949;28;20499;-68
2024/01/16 03:29:53;;;;;;;7.22;2.00;;;;;;;-0.65;100.00;100916.72;5050947;28;20036;-68
2024/01/16 03:32:18;;;;;;;4.15;2.00;;;;;;;-0.68;100.00;100909.94;5050852;28;20086;-68
2024/01/16 03:34:43;;;;;;;3.85;1.70;;;;;;;-0.63;100.00;100911.34;5050867;28;20033;-68
2024/01/16 03:37:09;;;;;;;3.92;1.70;;;;;;;-0.60;100.00;100916.31;5050849;28;20028;-68
2024/01/16 03:39:34;;;;;;;1.83;1.52;;;;;;;-0.58;100.00;100915.25;5050851;28;20048;-68
2024/01/16 03:41:59;;;;;;;2.45;1.50;;;;;;;-0.56;100.00;100909.91;5049029;28;20033;-68
2024/01/16 03:44:25;;;;;;;5.75;1.95;;;;;;;-0.56;100.00;100909.91;5050648;28;20127;-68
2024/01/16 03:46:50;;;;;;;3.45;2.28;;;;;;;-0.56;100.00;100909.91;5050539;28;20079;-68
2024/01/16 03:49:15;;;;;;;5.75;2.10;;;;;;;-0.59;100.00;100902.28;5050327;28;20476;-68
2024/01/16 03:51:45;;;;;;;2.17;1.48;;;;;;;-0.58;100.00;100903.94;5050537;28;20067;-68
2024/01/16 03:54:11;;;;;;;7.57;3.58;;;;;;;-0.60;100.00;100904.09;5050441;28;20518;-68
2024/01/16 03:56:36;;;;;;;5.60;1.40;;;;;;;-0.59;100.00;100905.75;5050466;28;20032;-68
2024/01/16 03:59:03;;;;;;;5.28;1.80;;;;;;;-0.69;100.00;100883.84;5050407;28;20064;-68
2024/01/16 04:01:36;;;;;;;5.88;2.20;;;;;;;-0.54;100.00;100902.75;5050277;28;20028;-68
2024/01/16 04:04:02;;;;;;;5.85;1.95;;;;;;;-0.50;100.00;100893.69;5050203;28;20499;-68
2024/01/16 04:06:29;;;;;;;6.18;2.20;;;;;;;-0.51;100.00;100887.63;5050076;28;20032;-69
2024/01/16 04:08:54;;;;;;;4.22;1.70;;;;;;;-0.50;100.00;100885.81;5050196;28;20024;-68
2024/01/16 04:11:19;;;;;;;5.63;2.35;;;;;;;-0.54;100.00;100885.25;5050152;28;20021;-68
2024/01/16 04:13:46;;;;;;;4.75;1.90;;;;;;;-0.60;100.00;100885.75;5050096;28;20039;-68
2024/01/16 04:16:12;;;;;;;7.63;2.58;;;;;;;-0.69;100.00;100874.22;5049698;28;20028;-68
2024/01/16 04:18:40;;;;;;;4.50;1.80;;;;;;;-0.71;100.00;100881.38;5050038;28;20037;-68
2024/01/16 04:21:06;;;;;;;4.15;2.17;;;;;;;-0.78;100.00;100874.13;5049911;28;20044;-68
2024/01/16 04:23:31;;;;;;;6.75;2.55;;;;;;;-0.81;100.00;100879.59;5049988;28;20032;-68
2024/01/16 04:25:57;;;;;;;7.25;2.67;;;;;;;-0.88;100.00;100877.47;5049718;28;20054;-68
2024/01/16 04:28:22;;;;;;;6.72;2.33;;;;;;;-0.89;100.00;100869.75;5049961;28;20051;-68
2024/01/16 04:30:47;;;;;;;8.63;2.70;;;;;;;-0.93;100.00;100874.38;5048449;28;20066;-68
2024/01/16 04:33:13;;;;;;;10.80;4.32;;;;;;;-0.94;100.00;100870.13;5049840;28;20056;-68
2024/01/16 04:35:38;;;;;;;9.48;4.07;;;;;;;-0.95;100.00;100872.84;5049898;28;20028;-68
2024/01/16 04:38:04;;;;;;;10.40;3.70;;;;;;;-1.00;100.00;100870.56;5049509;28;20498;-68
2024/01/16 04:40:29;;;;;;;7.72;4.20;;;;;;;-0.96;100.00;100876.44;5049729;28;20040;-68
2024/01/16 04:42:55;;;;;;;10.20;4.35;;;;;;;-0.94;100.00;100875.34;5049658;28;20427;-68
2024/01/16 04:45:20;;;;;;;11.05;4.90;;;;;;;-0.95;100.00;100881.53;5049508;28;20472;-68
2024/01/16 04:47:46;;;;;;;12.00;6.15;;;;;;;-0.91;100.00;100887.38;5049610;28;20134;-68
2024/01/16 04:50:11;;;;;;;13.98;5.03;;;;;;;-0.91;100.00;100885.56;5049629;28;20108;-68
2024/01/16 04:52:37;;;;;;;14.38;6.00;;;;;;;-0.90;100.00;100883.78;5048900;28;20370;-68
2024/01/16 04:55:02;;;;;;;13.68;6.43;;;;;;;-0.91;100.00;100875.09;5049220;28;20025;-68
2024/01/16 04:57:27;;;;;;;15.18;6.22;;;;;;;-0.90;100.00;100873.31;5049518;28;20036;-68
2024/01/16 04:59:53;;;;;;;14.85;6.50;;;;;;;-0.91;100.00;100876.91;5049495;28;20052;-68
2024/01/16 05:02:18;;;;;;;14.80;6.55;;;;;;;-0.91;100.00;100869.03;5049401;28;20522;-68
2024/01/16 05:04:44;;;;;;;15.30;6.63;;;;;;;-0.95;100.00;100870.22;5049535;28;20041;-68
2024/01/16 05:07:10;;;;;;;12.88;5.63;;;;;;;-0.93;100.00;100882.25;5049350;28;20084;-68
2024/01/16 05:09:36;;;;;;;17.85;7.25;;;;;;;-0.95;100.00;100872.84;5049352;28;20122;-68
2024/01/16 05:12:01;;;;;;;18.48;7.38;;;;;;;-0.98;100.00;100867.84;5049280;28;20029;-68
2024/01/16 05:14:26;;;;;;;16.48;6.55;;;;;;;-0.99;100.00;100867.03;5049136;28;20036;-68
2024/01/16 05:16:52;;;;;;;20.63;7.43;;;;;;;-1.00;100.00;100870.56;5049424;28;20083;-68
2024/01/16 05:19:18;;;;;;;13.38;5.72;;;;;;;-0.99;100.00;100869.66;5031395;28;20472;-68
2024/01/16 05:21:43;;;;;;;14.27;7.00;;;;;;;-0.96;100.00;100871.19;5049152;28;20032;-68
2024/01/16 05:24:09;;;;;;;13.80;7.50;;;;;;;-0.96;100.00;100869.41;5049138;28;20035;-68
2024/01/16 05:26:35;;;;;;;15.38;7.10;;;;;;;-0.97;100.00;100861.66;5048965;28;20067;-68
2024/01/16 05:29:00;;;;;;;20.70;8.18;;;;;;;-0.96;100.00;100860.72;5049124;28;20032;-68
2024/01/16 05:31:25;;;;;;;16.13;6.82;;;;;;;-0.94;100.00;100856.19;5049087;28;20040;-68
2024/01/16 05:33:51;;;;;;;19.83;7.85;;;;;;;-1.05;100.00;100833.47;5049223;28;20476;-68
2024/01/16 05:36:16;;;;;;;19.38;7.32;;;;;;;-0.94;100.00;100851.78;5049161;28;20988;-68
2024/01/16 05:38:41;;;;;;;18.33;8.73;;;;;;;-0.92;100.00;100849.03;5049025;28;21008;-68
2024/01/16 05:41:07;;;;;;;15.73;7.95;;;;;;;-0.97;100.00;100852.03;5048915;28;20033;-68
2024/01/16 05:43:32;;;;;;;18.83;7.82;;;;;;;-0.97;100.00;100844.19;5048858;28;20468;-68
2024/01/16 05:45:58;;;;;;;17.92;7.53;;;;;;;-0.98;100.00;100837.28;5048921;28;20037;-68
2024/01/16 05:48:23;;;;;;;19.33;8.55;;;;;;;-1.03;100.00;100835.97;5048711;28;20484;-68
2024/01/16 05:50:48;;;;;;;17.55;7.78;;;;;;;-1.04;100.00;100840.38;5048968;28;20491;-68
2024/01/16 05:53:14;;;;;;;16.02;7.10;;;;;;;-1.03;100.00;100849.06;5048973;28;20120;-68
2024/01/16 05:55:39;;;;;;;14.93;6.32;;;;;;;-1.06;100.00;100842.28;5049061;28;20452;-68
2024/01/16 05:58:04;;;;;;;16.02;7.47;;;;;;;-1.10;100.00;100835.66;5049084;28;20084;-68
2024/01/16 06:00:30;;;;;;;18.92;7.55;;;;;;;-1.10;100.00;100838.25;5048793;28;20056;-68
2024/01/16 06:02:56;;;;;;;16.70;6.30;;;;;;;-1.17;100.00;100835.28;5049006;28;20043;-68
2024/01/16 06:05:21;;;;;;;17.20;8.90;;;;;;;-1.15;100.00;100829.94;5051328;28;20076;-68
2024/01/16 06:07:46;;;;;;;17.35;7.85;;;;;;;-1.21;100.00;100836.47;5052213;28;20049;-68
2024/01/16 06:10:13;;;;;;;14.60;7.07;;;;;;;-1.18;100.00;100838.00;5051141;28;20037;-68
2024/01/16 06:12:39;;;;;;;15.85;8.68;;;;;;;-1.19;100.00;100831.94;5052396;28;20028;-68
2024/01/16 06:15:05;;;;;;;13.73;6.80;;;;;;;-1.22;100.00;100832.19;5052405;28;20068;-68
2024/01/16 06:17:30;;;;;;;19.38;9.02;;;;;;;-1.20;100.00;100843.38;5052367;28;20028;-68
2024/01/16 06:19:55;;;;;;;16.45;8.05;;;;;;;-1.19;100.00;100833.75;5052283;28;20537;-68
2024/01/16 06:22:21;;;;;;;15.60;7.50;;;;;;;-1.21;100.00;100841.69;5052063;28;20043;-68
2024/01/16 06:24:46;;;;;;;18.98;7.13;;;;;;;-1.26;100.00;100830.75;5052116;28;20166;-68
2024/01/16 06:27:18;;;;;;;15.25;7.97;;;;;;;-1.25;100.00;100844.69;5052017;28;20476;-68
2024/01/16 06:29:47;;;;;;;14.48;6.53;;;;;;;-1.31;100.00;100830.31;5052065;28;20115;-69
2024/01/16 06:32:13;;;;;;;14.45;6.75;;;;;;;-1.32;100.00;100828.63;5051881;28;20166;-68
2024/01/16 06:34:38;;;;;;;18.35;7.82;;;;;;;-1.34;100.00;100834.00;5051999;28;20486;-73
2024/01/16 06:37:04;;;;;;;12.50;6.63;;;;;;;-1.38;100.00;100832.56;5051977;28;20033;-74
2024/01/16 06:39:29;;;;;;;16.67;6.93;;;;;;;-1.45;100.00;100834.00;5050658;28;20064;-74
2024/01/16 06:41:54;;;;;;;14.27;6.72;;;;;;;-1.44;100.00;100840.91;5051736;28;20361;-73
2024/01/16 06:44:20;;;;;;;18.20;8.65;;;;;;;-1.45;100.00;100838.41;5051628;28;20123;-73
2024/01/16 06:46:45;;;;;;;14.23;5.93;;;;;;;-1.47;100.00;100835.06;5051731;28;20052;-73
2024/01/16 06:49:10;;;;;;;12.48;6.20;;;;;;;-1.52;100.00;100831.97;5051722;28;20024;-73
2024/01/16 06:51:36;;;;;;;17.23;7.35;;;;;;;-1.52;100.00;100843.25;5051651;28;20017;-73
2024/01/16 06:54:01;;;;;;;12.65;6.93;;;;;;;-1.53;100.00;100841.59;5051829;28;20025;-73
2024/01/16 06:56:27;;;;;;;12.68;6.13;;;;;;;-1.56;100.00;100839.22;5051991;28;20092;-73
2024/01/16 06:58:52;;;;;;;12.77;7.03;;;;;;;-1.56;100.00;100839.22;5033631;28;20040;-73
2024/01/16 07:01:18;;;;;;;12.07;6.55;;;;;;;-1.57;100.00;100837.59;5051391;28;20037;-73
2024/01/16 07:03:43;;;;;;;11.80;5.40;;;;;;;-1.59;100.00;100837.69;5051116;28;20044;-73
2024/01/16 07:06:09;;;;;;;10.93;6.07;;;;;;;-1.60;100.00;100845.63;5051334;28;20476;-73
2024/01/16 07:08:35;;;;;;;9.45;6.32;;;;;;;-1.60;100.00;100849.09;5051197;28;20377;-73
2024/01/16 07:11:01;;;;;;;18.63;6.53;;;;;;;-1.61;100.00;100842.19;5051437;28;20448;-73
2024/01/16 07:13:26;;;;;;;12.68;5.90;;;;;;;-1.63;100.00;100844.09;5049934;28;20095;-73
2024/01/16 07:15:51;;;;;;;11.20;5.88;;;;;;;-1.58;100.00;100848.97;5049117;28;20029;-73
2024/01/16 07:18:18;;;;;;;11.00;5.25;;;;;;;-1.58;100.00;100851.59;5051135;28;20480;-73
2024/01/16 07:20:45;;;;;;;15.45;5.60;;;;;;;-1.55;100.00;100861.81;5051328;28;20036;-73
2024/01/16 07:23:10;;;;;;;10.30;5.60;;;;;;;-1.53;100.00;100859.91;5050981;28;20029;-73
2024/01/16 07:25:36;;;;;;;12.63;5.45;;;;;;;-1.58;100.00;100852.41;5051028;28;20357;-73
2024/01/16 07:28:01;;;;;;;13.63;6.05;;;;;;;-1.53;100.00;100866.94;5050829;28;20143;-73
2024/01/16 07:30:27;;;;;;;10.23;4.78;;;;;;;-1.55;100.00;100859.19;5051003;28;20503;-73
2024/01/16 07:32:53;;;;;;;13.05;6.45;;;;;;;-1.55;100.00;100865.28;5050908;28;20468;-73
2024/01/16 07:35:18;;;;;;;11.32;5.50;;;;;;;-1.49;100.00;100866.59;5050939;28;20033;-73
2024/01/16 07:37:43;;;;;;;10.02;5.03;;;;;;;-1.51;100.00;100865.03;5050956;28;20074;-73
2024/01/16 07:40:09;;;;;;;11.52;5.68;;;;;;;-1.49;100.00;100868.34;5050770;28;20538;-73
2024/01/16 07:42:35;;;;;;;13.43;5.97;;;;;;;-1.51;100.00;100871.09;5050823;28;20583;-73
2024/01/16 07:45:04;;;;;;;14.32;5.47;;;;;;;-1.48;100.00;100863.00;5050539;28;20032;-73
2024/01/16 07:47:32;;;;;;;11.18;4.72;;;;;;;-1.49;100.00;100866.59;5050814;28;20021;-73
2024/01/16 07:49:59;;;;;;;18.88;6.75;;;;;;;-1.48;100.00;100873.47;5049214;28;20409;-73
2024/01/16 07:52:25;;;;;;;10.82;5.07;;;;;;;-1.47;100.00;100869.88;5048430;28;20045;-73
2024/01/16 07:54:50;;;;;;;10.75;5.90;;;;;;;-1.44;100.00;100874.06;5049992;28;20048;-73
2024/01/16 07:57:16;;;;;;;13.32;5.10;;;;;;;-1.44;100.00;100877.53;5048195;28;20036;-73
2024/01/16 07:59:41;;;;;;;11.40;5.72;;;;;;;-1.42;100.00;100883.44;5049387;28;20033;-68
2024/01/16 08:02:06;;;;;;;16.45;5.57;;;;;;;-1.42;100.00;100893.91;5048853;28;20486;-68
2024/01/16 08:04:32;;;;;;;10.52;5.82;;;;;;;-1.42;100.00;100888.69;5049370;28;20128;-68
2024/01/16 08:06:57;;;;;;;11.00;5.45;;;;;;;-1.42;100.00;100891.28;5049085;28;20025;-69
2024/01/16 08:09:23;;;;;;;12.43;4.72;;;;;;;-1.44;100.00;100885.38;5049334;28;20047;-68
2024/01/16 08:11:48;;;;;;;11.10;5.03;;;;;;;-1.42;100.00;100885.25;5049196;28;20056;-68
2024/01/16 08:14:14;;;;;;;17.00;4.80;;;;;;;-1.42;100.00;100887.84;5049145;28;20033;-68
2024/01/16 08:16:39;;;;;;;6.70;4.68;;;;;;;-1.48;100.00;100876.09;5048114;28;20119;-68
2024/01/16 08:19:04;;;;;;;8.85;4.40;;;;;;;-1.39;100.00;100898.06;5048129;28;20136;-68
2024/01/16 08:21:30;;;;;;;20.88;6.15;;;;;;;-1.43;100.00;100894.03;5049378;28;20369;-68
2024/01/16 08:23:55;;;;;;;12.65;6.13;;;;;;;-1.39;100.00;100901.53;5049608;28;20044;-69
2024/01/16 08:26:20;;;;;;;7.97;4.05;;;;;;;-1.37;100.00;100894.38;5049514;28;20116;-68
2024/01/16 08:28:46;;;;;;;14.75;4.75;;;;;;;-1.36;100.00;100895.25;5050019;28;20025;-68
2024/01/16 08:31:11;;;;;;;10.18;5.03;;;;;;;-1.38;100.00;100890.13;5049806;28;20120;-68
2024/01/16 08:33:37;;;;;;;14.93;6.75;;;;;;;-1.37;100.00;100891.78;5049055;28;20021;-68
2024/01/16 08:36:04;;;;;;;18.20;5.72;;;;;;;-1.37;100.00;100891.78;5046767;28;20032;-68
2024/01/16 08:38:29;;;;;;;10.82;4.90;;;;;;;-1.40;100.00;100881.56;5047073;28;20038;-69
2024/01/16 08:40:55;;;;;;;8.80;5.45;;;;;;;-1.34;100.00;100893.31;5047420;28;20036;-68
2024/01/16 08:43:20;;;;;;;14.27;5.13;;;;;;;-1.38;100.00;100884.88;5047674;28;20349;-68
2024/01/16 08:45:47;;;;;;;12.85;5.82;;;;;;;-1.35;100.00;100886.44;5047403;28;20376;-69
2024/01/16 08:48:14;;;;;;;12.07;4.20;;;;;;;-1.32;100.00;100884.41;5045949;28;20033;-68
2024/01/16 08:50:40;;;;;;;16.35;6.35;;;;;;;-1.31;100.00;100895.72;5047311;28;20016;-68
2024/01/16 08:53:06;;;;;;;9.52;4.00;;;;;;;-1.29;100.00;100903.44;5047406;28;20033;-68
2024/01/16 08:55:32;;;;;;;10.68;4.68;;;;;;;-1.26;100.00;100895.34;5047244;28;20068;-68
2024/01/16 08:57:57;;;;;;;9.38;4.78;;;;;;;-1.26;100.00;100890.13;5047656;28;20040;-67
2024/01/16 09:00:22;;;;;;;10.98;4.40;;;;;;;-1.28;100.00;100881.53;5047483;28;20029;-68
2024/01/16 09:02:48;;;;;;;11.70;5.35;;;;;;;-1.22;100.00;100895.00;5047110;28;20031;-68
2024/01/16 09:05:14;;;;;;;10.80;5.03;;;;;;;-1.23;100.00;100903.81;5049196;28;20031;-68
2024/01/16 09:07:40;;;;;;;9.40;5.10;;;;;;;-1.19;100.00;100891.31;5049141;28;20060;-68
2024/01/16 09:10:06;;;;;;;8.55;4.38;;;;;;;-1.17;100.00;100902.50;5049175;28;20028;-68
2024/01/16 09:12:33;;;;;;;11.10;5.47;;;;;;;-1.16;100.00;100894.50;5049270;28;20029;-69
2024/01/16 09:14:58;;;;;;;12.10;4.50;;;;;;;-1.14;100.00;100891.78;5049247;28;20476;-68
2024/01/16 09:17:25;;;;;;;8.88;4.78;;;;;;;-1.14;100.00;100886.56;5049290;28;20040;-68
2024/01/16 09:19:51;;;;;;;6.40;4.40;;;;;;;-1.08;100.00;100895.69;5047933;28;20029;-68
2024/01/16 09:22:16;;;;;;;11.02;5.25;;;;;;;-1.08;100.00;100899.16;5049178;28;20032;-68
2024/01/16 09:24:42;;;;;;;9.35;4.45;;;;;;;-1.04;100.00;100897.13;5049091;28;20029;-68
2024/01/16 09:27:09;;;;;;;11.95;5.28;;;;;;;-1.03;100.00;100888.31;5049536;28;20157;-68
2024/01/16 09:29:35;;;;;;;10.90;3.92;;;;;;;-1.04;100.00;100884.88;5047830;28;20037;-68
2024/01/16 09:32:00;;;;;;;12.43;4.28;;;;;;;-1.02;100.00;100887.34;5047771;28;20606;-68
2024/01/16 09:34:26;;;;;;;8.13;4.30;;;;;;;-1.02;100.00;100882.13;5049200;28;20033;-69
2024/01/16 09:36:51;;;;;;;12.30;4.35;;;;;;;-0.97;100.00;100880.84;5048950;28;20460;-68
2024/01/16 09:39:16;;;;;;;9.40;4.57;;;;;;;-0.91;100.00;100879.50;5049881;28;20044;-68
2024/01/16 09:41:42;;;;;;;9.90;4.35;;;;;;;-0.91;100.00;100882.94;5052808;28;20580;-68
2024/01/16 09:44:08;;;;;;;11.88;4.88;;;;;;;-0.89;100.00;100886.28;5053051;28;20044;-68
2024/01/16 09:46:37;;;;;;;8.13;3.70;;;;;;;-0.91;100.00;100887.38;5052887;28;20040;-68
2024/01/16 09:49:02;;;;;;;11.07;5.05;;;;;;;-0.87;100.00;100891.38;5052986;28;20021;-67
2024/01/16 09:51:28;;;;;;;11.38;5.15;;;;;;;-0.85;100.00;100896.50;5052871;28;20032;-68
2024/01/16 09:53:53;;;;;;;17.85;5.75;;;;;;;-0.80;100.00;100897.81;5052468;28;20368;-69
2024/01/16 09:56:22;;;;;;;7.68;4.30;;;;;;;-0.80;100.00;100886.50;5034112;28;20044;-69
2024/01/16 09:58:49;;;;;;;9.98;4.40;;;;;;;-0.75;100.00;100900.91;5034456;28;20086;-68
2024/01/16 10:01:15;;;;;;;11.80;5.65;;;;;;;-0.75;100.00;100887.81;5052765;28;20068;-68
2024/01/16 10:03:45;;;;;;;9.18;4.55;;;;;;;-0.82;100.00;100875.31;5052494;28;20079;-68
2024/01/16 10:06:11;;;;;;;13.30;5.47;;;;;;;-0.80;100.00;100878.66;5052466;28;20052;-68
2024/01/16 10:08:37;;;;;;;9.30;3.88;;;;;;;-0.83;100.00;100873.66;5052225;28;20424;-68
2024/01/16 10:11:02;;;;;;;9.52;4.88;;;;;;;-0.95;100.00;100849.28;5052369;28;20021;-68
2024/01/16 10:13:29;;;;;;;13.90;6.53;;;;;;;-0.83;100.00;100865.81;5052389;28;20396;-68
2024/01/16 10:15:55;;;;;;;10.23;4.88;;;;;;;-0.87;100.00;100865.22;5052329;28;20071;-69
2024/01/16 10:18:24;;;;;;;6.30;3.65;;;;;;;-0.83;100.00;100873.66;5052322;28;20025;-68
2024/01/16 10:20:49;;;;;;;11.05;4.90;;;;;;;-0.82;100.00;100862.22;5052170;28;20094;-69
2024/01/16 10:23:23;;;;;;;11.57;5.03;;;;;;;-0.70;100.00;100869.09;5052106;28;20431;-68
2024/01/16 10:26:07;;;;;;;11.63;5.50;;;;;;;-0.67;100.00;100848.72;5051958;28;20037;-69
2024/01/16 10:28:36;;;;;;;10.00;5.30;;;;;;;-0.52;100.00;100858.94;5052130;28;20530;-68
2024/01/16 10:31:06;;;;;;;11.63;5.63;;;;;;;-0.43;100.00;100854.72;5052007;28;20017;-68
2024/01/16 10:33:31;;;;;;;17.45;5.68;;;;;;;-0.39;100.00;100851.75;5051753;28;20060;-68
2024/01/16 10:36:16;;;;;;;11.90;5.13;;;;;;;-0.32;100.00;100852.88;5051807;28;20025;-69
2024/01/16 10:38:43;;;;;;;10.07;4.80;;;;;;;-0.24;100.00;100866.22;5051996;28;20060;-68
2024/01/16 10:41:08;;;;;;;7.90;3.90;;;;;;;-0.19;100.00;100852.69;5051721;28;20025;-68
2024/01/16 10:43:34;;;;;;;13.55;5.70;;;;;;;-0.18;100.00;100848.28;5051938;28;20090;-69
2024/01/16 10:46:09;;;;;;;10.68;5.32;;;;;;;-0.15;100.00;100845.44;5051720;28;20036;-69
2024/01/16 10:48:35;;;;;;;11.27;5.03;;;;;;;-0.10;100.00;100838.03;5051554;28;20033;-69
2024/01/16 10:51:02;;;;;;;13.90;5.00;;;;;;;-0.05;100.00;100833.22;5050472;28;20035;-69
2024/01/16 10:53:32;;;;;;;14.05;6.20;;;;;;;-0.01;100.00;100845.09;5051545;28;20029;-68
2024/01/16 10:56:00;;;;;;;15.00;5.45;;;;;;;0.03;100.00;100851.78;5051623;28;20041;-69
2024/01/16 10:58:25;;;;;;;11.43;5.97;;;;;;;0.06;100.00;100850.69;5051531;28;20044;-69
2024/01/16 11:00:52;;;;;;;11.98;5.47;;;;;;;0.09;100.00;100845.19;5051044;28;20029;-68
2024/01/16 11:03:52;;;;;;;12.13;5.13;;;;;;;0.13;100.00;100850.03;5049978;28;21050;-69
2024/01/16 11:06:18;;;;;;;8.73;5.70;;;;;;;0.20;100.00;100845.91;5048312;28;20582;-69